createdAt,value
2018-11-02T00:01:52.074Z,8.63
2018-11-02T00:04:20.136Z,7.10
2018-11-02T00:06:48.254Z,7.27
2018-11-02T00:09:16.426Z,7.83
2018-11-02T00:11:44.462Z,7.40
2018-11-02T00:14:12.609Z,5.30
2018-11-02T00:16:40.633Z,7.87
2018-11-02T00:19:08.721Z,8.50
2018-11-02T00:21:36.772Z,8.23
2018-11-02T00:24:05.062Z,7.10
2018-11-02T00:26:33.107Z,7.83
2018-11-02T00:29:01.229Z,8.63
2018-11-02T00:31:29.321Z,7.53
2018-11-02T00:33:57.481Z,7.57
2018-11-02T00:36:25.538Z,6.53
2018-11-02T00:38:53.682Z,7.70
2018-11-02T00:41:21.685Z,7.27
2018-11-02T00:43:50.192Z,7.53
2018-11-02T00:46:18.257Z,7.60
2018-11-02T00:48:46.327Z,6.87
2018-11-02T00:51:14.319Z,7.80
2018-11-02T00:53:42.333Z,6.77
2018-11-02T00:56:10.296Z,7.17
2018-11-02T00:58:38.869Z,7.20
2018-11-02T01:01:07.052Z,7.70
2018-11-02T01:03:35.242Z,7.83
2018-11-02T01:06:03.489Z,7.27
2018-11-02T01:08:31.697Z,7.63
2018-11-02T01:10:59.804Z,7.57
2018-11-02T01:13:27.922Z,7.53
2018-11-02T01:15:56.091Z,8.03
2018-11-02T01:18:24.181Z,7.60
2018-11-02T01:20:52.236Z,7.30
2018-11-02T01:23:20.446Z,6.33
2018-11-02T01:25:48.426Z,6.60
2018-11-02T01:28:16.385Z,6.13
2018-11-02T01:30:44.468Z,7.10
2018-11-02T01:33:12.444Z,6.43
2018-11-02T01:35:40.537Z,6.43
2018-11-02T01:38:08.648Z,6.20
2018-11-02T01:40:36.873Z,5.83
2018-11-02T01:43:05.749Z,5.33
2018-11-02T01:45:33.821Z,5.47
2018-11-02T01:48:01.751Z,6.10
2018-11-02T01:50:29.807Z,5.50
2018-11-02T01:52:57.834Z,5.87
2018-11-02T01:55:25.968Z,6.20
2018-11-02T01:57:53.978Z,4.97
2018-11-02T02:00:21.987Z,5.70
2018-11-02T02:02:50.034Z,5.83
2018-11-02T02:05:18.190Z,4.73
2018-11-02T02:07:46.272Z,6.03
2018-11-02T02:10:14.542Z,5.93
2018-11-02T02:12:42.631Z,6.33
2018-11-02T02:15:11.372Z,4.73
2018-11-02T02:17:39.487Z,6.30
2018-11-02T02:20:08.092Z,5.73
2018-11-02T02:22:36.202Z,6.47
2018-11-02T02:25:04.452Z,6.40
2018-11-02T02:27:36.207Z,6.20
2018-11-02T02:30:05.927Z,5.53
2018-11-02T02:32:34.070Z,5.10
2018-11-02T02:35:02.072Z,5.80
2018-11-02T02:37:30.162Z,4.97
2018-11-02T02:39:58.218Z,6.10
2018-11-02T02:42:26.201Z,6.70
2018-11-02T02:44:54.241Z,5.53
2018-11-02T02:47:22.221Z,4.90
2018-11-02T02:49:50.572Z,5.97
2018-11-02T02:52:18.721Z,6.03
2018-11-02T02:54:46.746Z,5.97
2018-11-02T02:57:14.866Z,5.90
2018-11-02T02:59:43.086Z,5.73
2018-11-02T03:02:11.356Z,5.37
2018-11-02T03:04:39.457Z,6.03
2018-11-02T03:07:07.477Z,6.10
2018-11-02T03:09:35.581Z,6.70
2018-11-02T03:12:03.662Z,6.27
2018-11-02T03:14:31.740Z,6.40
2018-11-02T03:16:59.807Z,6.50
2018-11-02T03:19:27.817Z,6.43
2018-11-02T03:21:55.916Z,4.97
2018-11-02T03:24:23.887Z,6.13
2018-11-02T03:26:51.924Z,5.73
2018-11-02T03:29:20.031Z,5.10
2018-11-02T03:31:48.114Z,7.00
2018-11-02T03:34:16.217Z,4.93
2018-11-02T03:36:44.376Z,3.37
2018-11-02T03:39:13.063Z,3.90
2018-11-02T03:41:41.681Z,3.20
2018-11-02T03:44:10.667Z,3.70
2018-11-02T03:46:39.061Z,3.43
2018-11-02T03:49:07.311Z,2.97
2018-11-02T03:51:35.360Z,3.20
2018-11-02T03:54:03.346Z,2.97
2018-11-02T03:56:31.421Z,2.93
2018-11-02T03:58:59.461Z,3.00
2018-11-02T04:01:27.565Z,2.70
2018-11-02T04:03:55.631Z,3.57
2018-11-02T04:06:23.706Z,3.23
2018-11-02T04:08:51.686Z,3.17
2018-11-02T04:11:19.781Z,3.40
2018-11-02T04:13:47.796Z,3.07
2018-11-02T04:16:15.936Z,3.20
2018-11-02T04:18:43.996Z,3.30
2018-11-02T04:21:12.079Z,2.70
2018-11-02T04:23:40.101Z,2.73
2018-11-02T04:26:08.206Z,3.37
2018-11-02T04:28:36.196Z,3.00
2018-11-02T04:31:04.385Z,3.03
2018-11-02T04:33:32.377Z,3.50
2018-11-02T04:36:00.422Z,3.10
2018-11-02T04:38:28.537Z,3.10
2018-11-02T04:40:56.626Z,3.60
2018-11-02T04:43:25.057Z,2.90
2018-11-02T04:45:53.125Z,2.97
2018-11-02T04:48:21.097Z,3.60
2018-11-02T04:50:49.168Z,3.63
2018-11-02T04:53:17.142Z,3.90
2018-11-02T04:55:45.181Z,4.10
2018-11-02T04:58:13.273Z,3.40
2018-11-02T05:00:41.302Z,3.73
2018-11-02T05:03:09.387Z,3.90
2018-11-02T05:05:37.411Z,3.83
2018-11-02T05:08:05.480Z,3.80
2018-11-02T05:10:33.606Z,4.00
2018-11-02T05:13:01.701Z,4.10
2018-11-02T05:15:29.749Z,4.30
2018-11-02T05:17:57.876Z,4.57
2018-11-02T05:20:25.897Z,4.33
2018-11-02T05:22:53.986Z,3.23
2018-11-02T05:25:22.047Z,4.73
2018-11-02T05:27:50.211Z,4.13
2018-11-02T05:30:18.227Z,4.77
2018-11-02T05:32:46.356Z,4.27
2018-11-02T05:35:14.360Z,5.07
2018-11-02T05:37:42.496Z,5.03
2018-11-02T05:40:10.575Z,4.83
2018-11-02T05:42:38.647Z,5.30
2018-11-02T05:45:07.037Z,5.87
2018-11-02T05:47:35.116Z,5.37
2018-11-02T05:50:03.182Z,5.03
2018-11-02T05:52:31.240Z,5.80
2018-11-02T05:54:59.302Z,6.40
2018-11-02T05:57:27.537Z,6.53
2018-11-02T05:59:55.509Z,6.07
2018-11-02T06:02:23.521Z,7.17
2018-11-02T06:04:51.552Z,7.00
2018-11-02T06:07:19.571Z,6.83
2018-11-02T06:09:47.841Z,6.10
2018-11-02T06:12:15.896Z,7.43
2018-11-02T06:14:43.956Z,7.57
2018-11-02T06:17:12.158Z,6.97
2018-11-02T06:19:40.166Z,7.17
2018-11-02T06:22:08.181Z,7.67
2018-11-02T06:24:38.326Z,8.40
2018-11-02T06:27:06.556Z,9.03
2018-11-02T06:29:34.546Z,8.83
2018-11-02T06:32:02.636Z,9.83
2018-11-02T06:34:30.674Z,9.33
2018-11-02T06:36:58.931Z,9.80
2018-11-02T06:39:26.901Z,10.73
2018-11-02T06:41:54.961Z,10.10
2018-11-02T06:44:23.000Z,10.67
2018-11-02T06:46:51.081Z,10.07
2018-11-02T06:49:19.161Z,11.80
2018-11-02T06:51:47.176Z,10.60
2018-11-02T06:54:15.261Z,10.70
2018-11-02T06:56:43.281Z,11.53
2018-11-02T06:59:11.476Z,11.43
2018-11-02T07:01:39.436Z,12.43
2018-11-02T07:04:07.466Z,11.23
2018-11-02T07:06:35.511Z,12.53
2018-11-02T07:09:04.296Z,11.40
2018-11-02T07:11:32.326Z,10.23
2018-11-02T07:14:00.516Z,12.20
2018-11-02T07:16:28.571Z,12.67
2018-11-02T07:18:56.791Z,12.67
2018-11-02T07:21:24.981Z,13.23
2018-11-02T07:23:53.072Z,11.77
2018-11-02T07:26:21.076Z,13.27
2018-11-02T07:28:49.156Z,13.20
2018-11-02T07:31:17.381Z,13.00
2018-11-02T07:33:45.539Z,10.97
2018-11-02T07:36:13.597Z,13.37
2018-11-02T07:38:47.726Z,13.93
2018-11-02T07:41:15.826Z,13.07
2018-11-02T07:43:43.876Z,13.87
2018-11-02T07:46:11.896Z,12.90
2018-11-02T07:48:39.962Z,13.30
2018-11-02T07:51:08.091Z,11.83
2018-11-02T07:53:36.299Z,13.33
2018-11-02T07:56:04.631Z,11.40
2018-11-02T07:58:33.341Z,13.40
2018-11-02T08:01:02.119Z,13.83
2018-11-02T08:03:30.341Z,12.50
2018-11-02T08:05:58.603Z,14.10
2018-11-02T08:08:26.783Z,13.47
2018-11-02T08:10:54.997Z,13.83
2018-11-02T08:13:23.237Z,14.70
2018-11-02T08:15:51.476Z,14.17
2018-11-02T08:18:19.622Z,15.50
2018-11-02T08:20:47.816Z,14.20
2018-11-02T08:23:15.942Z,15.20
2018-11-02T08:25:44.082Z,15.63
2018-11-02T08:28:12.221Z,15.70
2018-11-02T08:30:40.281Z,15.37
2018-11-02T08:33:08.422Z,16.27
2018-11-02T08:35:36.897Z,14.87
2018-11-02T08:38:05.098Z,15.43
2018-11-02T08:40:33.241Z,15.20
2018-11-02T08:43:01.407Z,15.47
2018-11-02T08:45:29.601Z,16.43
2018-11-02T08:47:57.706Z,13.93
2018-11-02T08:50:25.889Z,14.40
2018-11-02T08:52:54.069Z,15.27
2018-11-02T08:55:22.377Z,15.00
2018-11-02T08:57:50.602Z,14.07
2018-11-02T09:00:18.872Z,14.63
2018-11-02T09:02:46.889Z,14.90
2018-11-02T09:05:15.151Z,14.37
2018-11-02T09:07:43.216Z,13.80
2018-11-02T09:10:12.093Z,15.27
2018-11-02T09:12:40.177Z,16.33
2018-11-02T09:15:08.297Z,15.93
2018-11-02T09:17:36.564Z,14.73
2018-11-02T09:20:05.007Z,13.93
2018-11-02T09:22:33.501Z,15.83
2018-11-02T09:25:01.792Z,14.57
2018-11-02T09:27:29.992Z,13.57
2018-11-02T09:29:58.167Z,13.73
2018-11-02T09:32:26.177Z,14.10
2018-11-02T09:34:54.249Z,13.67
2018-11-02T09:37:22.344Z,12.63
2018-11-02T09:39:50.613Z,12.97
2018-11-02T09:42:18.736Z,12.97
2018-11-02T09:44:46.885Z,13.93
2018-11-02T09:47:15.076Z,12.97
2018-11-02T09:49:43.188Z,13.27
2018-11-02T09:52:11.344Z,13.30
2018-11-02T09:54:39.601Z,13.30
2018-11-02T09:57:07.621Z,14.03
2018-11-02T09:59:35.749Z,13.17
2018-11-02T10:02:04.211Z,14.47
2018-11-02T10:04:32.199Z,12.87
2018-11-02T10:07:00.262Z,13.33
2018-11-02T10:09:28.428Z,13.00
2018-11-02T10:11:56.442Z,13.33
2018-11-02T10:14:24.568Z,12.30
2018-11-02T10:16:52.677Z,13.47
2018-11-02T10:19:20.818Z,13.07
2018-11-02T10:21:48.903Z,14.27
2018-11-02T10:24:16.949Z,14.23
2018-11-02T10:26:45.113Z,14.30
2018-11-02T10:29:13.205Z,13.43
2018-11-02T10:31:41.478Z,13.43
2018-11-02T10:34:09.544Z,14.80
2018-11-02T10:36:38.538Z,14.77
2018-11-02T10:39:08.777Z,13.30
2018-11-02T10:41:41.037Z,13.40
2018-11-02T10:44:10.098Z,14.60
2018-11-02T10:46:38.328Z,13.63
2018-11-02T10:49:06.631Z,14.83
2018-11-02T10:51:34.685Z,13.03
2018-11-02T10:54:03.353Z,12.60
2018-11-02T10:56:31.436Z,14.77
2018-11-02T10:58:59.513Z,12.70
2018-11-02T11:01:33.078Z,13.13
2018-11-02T11:04:01.115Z,13.37
2018-11-02T11:06:29.237Z,12.53
2018-11-02T11:08:57.239Z,11.73
2018-11-02T11:11:25.424Z,11.30
2018-11-02T11:13:53.438Z,10.30
2018-11-02T11:16:21.648Z,9.37
2018-11-02T11:18:49.671Z,10.10
2018-11-02T11:21:17.879Z,9.57
2018-11-02T11:23:45.868Z,10.20
2018-11-02T11:26:13.969Z,9.67
2018-11-02T11:28:42.089Z,9.17
2018-11-02T11:31:10.246Z,7.93
2018-11-02T11:33:38.352Z,7.73
2018-11-02T11:36:06.530Z,8.77
2018-11-02T11:38:34.966Z,9.87
2018-11-02T11:41:03.528Z,9.10
2018-11-02T11:43:31.608Z,10.07
2018-11-02T11:45:59.628Z,10.17
2018-11-02T11:48:27.712Z,11.20
2018-11-02T11:50:55.718Z,11.17
2018-11-02T11:53:23.833Z,12.03
2018-11-02T11:55:51.869Z,12.07
2018-11-02T11:58:20.008Z,11.00
2018-11-02T12:00:48.033Z,11.20
2018-11-02T12:03:16.183Z,12.33
2018-11-02T12:05:44.228Z,11.23
2018-11-02T12:08:12.394Z,11.93
2018-11-02T12:10:40.433Z,12.13
2018-11-02T12:13:08.525Z,12.30
2018-11-02T12:15:36.707Z,12.23
2018-11-02T12:18:05.311Z,11.77
2018-11-02T12:20:33.476Z,10.17
2018-11-02T12:23:02.757Z,11.73
2018-11-02T12:25:30.888Z,11.13
2018-11-02T12:27:58.929Z,11.83
2018-11-02T12:30:27.015Z,11.90
2018-11-02T12:32:55.036Z,10.40
2018-11-02T12:35:23.073Z,12.20
2018-11-02T12:37:51.116Z,11.57
2018-11-02T12:40:21.991Z,10.13
2018-11-02T12:42:51.117Z,11.90
2018-11-02T12:45:20.066Z,10.33
2018-11-02T12:47:48.217Z,9.77
2018-11-02T12:50:20.018Z,9.30
2018-11-02T12:52:48.829Z,8.33
2018-11-02T12:55:17.396Z,8.30
2018-11-02T12:57:45.433Z,7.43
2018-11-02T13:00:15.547Z,6.90
2018-11-02T13:02:44.531Z,7.27
2018-11-02T13:05:12.542Z,7.07
2018-11-02T13:07:40.768Z,7.50
2018-11-02T13:10:10.159Z,7.20
2018-11-02T13:12:38.223Z,6.60
2018-11-02T13:15:07.833Z,6.50
2018-11-02T13:17:35.930Z,6.30
2018-11-02T13:20:04.281Z,6.70
2018-11-02T13:22:32.330Z,6.73
2018-11-02T13:25:00.482Z,6.73
2018-11-02T13:27:28.529Z,7.27
2018-11-02T13:29:56.762Z,8.13
2018-11-02T13:32:24.918Z,7.90
2018-11-02T13:34:53.111Z,8.00
2018-11-02T13:37:21.373Z,7.50
2018-11-02T13:39:49.488Z,7.57
2018-11-02T13:42:17.513Z,7.40
2018-11-02T13:44:45.668Z,7.60
2018-11-02T13:47:17.526Z,7.40
2018-11-02T13:49:45.711Z,6.43
2018-11-02T13:52:13.748Z,7.30
2018-11-02T13:54:42.083Z,6.73
2018-11-02T13:57:10.065Z,6.77
2018-11-02T13:59:38.365Z,6.73
2018-11-02T14:02:07.208Z,6.30
2018-11-02T14:04:36.295Z,6.63
2018-11-02T14:07:04.468Z,7.10
2018-11-02T14:09:32.635Z,7.43
2018-11-02T14:12:00.688Z,7.67
2018-11-02T14:14:28.746Z,7.13
2018-11-02T14:16:56.854Z,7.33
2018-11-02T14:19:25.113Z,7.10
2018-11-02T14:21:53.333Z,7.03
2018-11-02T14:24:21.428Z,6.47
2018-11-02T14:26:49.598Z,6.53
2018-11-02T14:29:17.691Z,6.20
2018-11-02T14:31:45.782Z,5.90
2018-11-02T14:34:13.874Z,6.87
2018-11-02T14:36:42.057Z,6.93
2018-11-02T14:39:12.189Z,7.23
2018-11-02T14:41:40.833Z,6.70
2018-11-02T14:44:09.309Z,7.13
2018-11-02T14:46:37.708Z,7.20
2018-11-02T14:49:06.004Z,7.60
2018-11-02T14:51:34.219Z,7.77
2018-11-02T14:54:02.170Z,7.73
2018-11-02T14:56:30.453Z,7.77
2018-11-02T14:58:58.708Z,7.43
2018-11-02T15:01:27.240Z,7.97
2018-11-02T15:03:55.317Z,7.90
2018-11-02T15:06:23.463Z,7.70
2018-11-02T15:08:51.553Z,7.70
2018-11-02T15:11:19.670Z,6.80
2018-11-02T15:13:47.633Z,7.57
2018-11-02T15:16:15.684Z,8.00
2018-11-02T15:18:43.687Z,6.97
2018-11-02T15:21:11.823Z,7.27
2018-11-02T15:23:40.828Z,7.70
2018-11-02T15:26:08.928Z,7.00
2018-11-02T15:28:36.999Z,7.67
2018-11-02T15:31:05.545Z,6.80
2018-11-02T15:33:33.568Z,7.27
2018-11-02T15:36:01.729Z,8.30
2018-11-02T15:38:29.793Z,7.83
2018-11-02T15:40:57.921Z,8.17
2018-11-02T15:43:25.921Z,7.47
2018-11-02T15:45:54.101Z,7.40
2018-11-02T15:48:22.093Z,8.43
2018-11-02T15:50:50.148Z,7.17
2018-11-02T15:53:18.200Z,6.73
2018-11-02T15:55:46.349Z,7.30
2018-11-02T15:58:14.389Z,5.43
2018-11-02T16:00:42.561Z,4.40
2018-11-02T16:03:10.469Z,3.83
2018-11-02T16:05:38.481Z,3.97
2018-11-02T16:08:06.559Z,3.73
2018-11-02T16:10:34.538Z,3.57
2018-11-02T16:13:02.564Z,3.27
2018-11-02T16:15:30.508Z,3.20
2018-11-02T16:17:58.599Z,3.33
2018-11-02T16:20:26.701Z,3.80
2018-11-02T16:22:54.833Z,3.53
2018-11-02T16:25:22.817Z,3.47
2018-11-02T16:27:50.916Z,3.80
2018-11-02T16:30:18.899Z,4.17
2018-11-02T16:32:46.919Z,3.87
2018-11-02T16:35:14.904Z,4.93
2018-11-02T16:37:43.054Z,5.40
2018-11-02T16:40:13.104Z,5.47
2018-11-02T16:42:41.433Z,5.47
2018-11-02T16:45:10.681Z,5.17
2018-11-02T16:47:38.916Z,5.47
2018-11-02T16:50:08.504Z,6.83
2018-11-02T16:52:36.614Z,7.40
2018-11-02T16:55:04.693Z,7.80
2018-11-02T16:57:32.758Z,7.33
2018-11-02T17:00:00.789Z,7.43
2018-11-02T17:02:28.852Z,6.87
2018-11-02T17:04:56.863Z,6.60
2018-11-02T17:07:24.957Z,6.93
2018-11-02T17:09:52.999Z,6.77
2018-11-02T17:12:21.052Z,7.27
2018-11-02T17:14:49.062Z,7.40
2018-11-02T17:17:17.092Z,6.10
2018-11-02T17:19:45.156Z,6.63
2018-11-02T17:22:13.279Z,6.90
2018-11-02T17:24:41.265Z,6.47
2018-11-02T17:27:09.704Z,6.83
2018-11-02T17:29:37.794Z,6.63
2018-11-02T17:32:06.247Z,6.67
2018-11-02T17:34:34.313Z,6.73
2018-11-02T17:37:02.336Z,7.63
2018-11-02T17:39:30.404Z,8.63
2018-11-02T17:41:58.399Z,7.50
2018-11-02T17:44:26.404Z,8.67
2018-11-02T17:46:54.452Z,8.77
2018-11-02T17:49:22.515Z,8.57
2018-11-02T17:51:50.491Z,8.90
2018-11-02T17:54:18.549Z,9.33
2018-11-02T17:56:46.594Z,9.47
2018-11-02T17:59:14.675Z,10.00
2018-11-02T18:01:42.749Z,9.17
2018-11-02T18:04:11.917Z,9.17
2018-11-02T18:06:40.022Z,10.23
2018-11-02T18:09:09.887Z,10.20
2018-11-02T18:11:37.961Z,9.97
2018-11-02T18:14:06.307Z,10.20
2018-11-02T18:16:34.356Z,9.20
2018-11-02T18:19:02.661Z,9.50
2018-11-02T18:21:30.756Z,9.10
2018-11-02T18:23:58.896Z,9.73
2018-11-02T18:26:27.241Z,9.60
2018-11-02T18:28:55.966Z,9.50
2018-11-02T18:31:24.242Z,8.67
2018-11-02T18:33:52.507Z,9.30
2018-11-02T18:36:20.987Z,8.10
2018-11-02T18:38:49.431Z,7.90
2018-11-02T18:41:18.017Z,8.30
2018-11-02T18:43:46.242Z,7.50
2018-11-02T18:46:14.467Z,7.83
2018-11-02T18:48:42.878Z,7.77
2018-11-02T18:51:12.066Z,7.70
2018-11-02T18:53:40.397Z,7.53
2018-11-02T18:56:09.357Z,7.53
2018-11-02T18:58:37.582Z,8.03
2018-11-02T19:01:06.030Z,7.97
2018-11-02T19:03:34.477Z,7.30
2018-11-02T19:06:03.022Z,7.10
2018-11-02T19:08:31.507Z,7.10
2018-11-02T19:11:00.027Z,8.30
2018-11-02T19:13:28.619Z,7.43
2018-11-02T19:15:57.324Z,7.10
2018-11-02T19:18:25.817Z,7.37
2018-11-02T19:20:54.267Z,7.20
2018-11-02T19:23:22.732Z,7.50
2018-11-02T19:25:51.262Z,7.83
2018-11-02T19:28:19.796Z,7.67
2018-11-02T19:30:48.341Z,7.07
2018-11-02T19:33:16.812Z,7.93
2018-11-02T19:35:45.372Z,7.40
2018-11-02T19:38:14.225Z,8.00
2018-11-02T19:40:42.537Z,7.90
2018-11-02T19:43:11.247Z,7.17
2018-11-02T19:45:39.797Z,7.50
2018-11-02T19:48:08.218Z,8.00
2018-11-02T19:50:36.727Z,7.87
2018-11-02T19:53:05.436Z,9.40
2018-11-02T19:55:33.903Z,8.57
2018-11-02T19:58:02.159Z,9.63
2018-11-02T20:00:30.502Z,7.80
2018-11-02T20:02:59.076Z,8.53
2018-11-02T20:05:27.538Z,8.63
2018-11-02T20:07:55.821Z,8.80
2018-11-02T20:10:24.159Z,9.03
2018-11-02T20:12:52.436Z,8.93
2018-11-02T20:15:20.842Z,9.30
2018-11-02T20:17:50.367Z,9.53
2018-11-02T20:20:18.473Z,9.63
2018-11-02T20:22:46.803Z,9.30
2018-11-02T20:25:16.413Z,10.13
2018-11-02T20:27:44.596Z,9.20
2018-11-02T20:30:16.588Z,9.50
2018-11-02T20:32:45.167Z,9.43
2018-11-02T20:35:14.102Z,9.23
2018-11-02T20:37:42.606Z,8.83
2018-11-02T20:40:13.562Z,9.80
2018-11-02T20:42:42.947Z,9.33
2018-11-02T20:45:11.313Z,8.67
2018-11-02T20:47:44.903Z,9.80
2018-11-02T20:50:13.546Z,8.13
2018-11-02T20:52:41.825Z,9.17
2018-11-02T20:55:11.561Z,9.40
2018-11-02T20:57:40.354Z,10.67
2018-11-02T21:00:10.977Z,9.60
2018-11-02T21:02:40.096Z,10.13
2018-11-02T21:05:10.272Z,9.83
2018-11-02T21:07:38.289Z,9.67
2018-11-02T21:10:08.614Z,9.57
2018-11-02T21:12:36.729Z,10.03
2018-11-02T21:15:05.879Z,9.57
2018-11-02T21:17:33.854Z,9.07
2018-11-02T21:20:02.005Z,10.77
2018-11-02T21:22:30.024Z,11.00
2018-11-02T21:24:58.036Z,10.50
2018-11-02T21:27:26.027Z,9.97
2018-11-02T21:29:54.046Z,11.17
2018-11-02T21:32:22.033Z,10.50
2018-11-02T21:34:50.083Z,11.67
2018-11-02T21:37:18.209Z,11.87
2018-11-02T21:39:46.247Z,10.70
2018-11-02T21:42:14.253Z,12.17
2018-11-02T21:44:42.396Z,11.43
2018-11-02T21:47:10.433Z,11.40
2018-11-02T21:49:38.573Z,11.30
2018-11-02T21:52:06.583Z,11.57
2018-11-02T21:54:34.696Z,11.67
2018-11-02T21:57:02.697Z,11.03
2018-11-02T21:59:30.708Z,11.50
2018-11-02T22:01:58.783Z,11.23
2018-11-02T22:04:26.783Z,11.87
2018-11-02T22:06:54.948Z,11.40
2018-11-02T22:09:23.002Z,11.00
2018-11-02T22:11:51.021Z,11.43
2018-11-02T22:14:20.183Z,10.33
2018-11-02T22:16:50.501Z,10.50
2018-11-02T22:19:18.687Z,10.87
2018-11-02T22:21:46.726Z,11.33
2018-11-02T22:24:14.801Z,11.33
2018-11-02T22:26:43.073Z,10.70
2018-11-02T22:29:11.129Z,11.17
2018-11-02T22:31:39.252Z,10.90
2018-11-02T22:34:07.423Z,11.67
2018-11-02T22:36:35.528Z,10.93
2018-11-02T22:39:07.596Z,11.57
2018-11-02T22:41:35.996Z,10.70
2018-11-02T22:44:04.041Z,10.23
2018-11-02T22:46:32.181Z,11.13
2018-11-02T22:49:00.418Z,11.47
2018-11-02T22:51:28.527Z,11.53
2018-11-02T22:53:56.520Z,8.77
2018-11-02T22:56:24.548Z,10.00
2018-11-02T22:58:52.549Z,10.63
2018-11-02T23:01:27.127Z,11.40
2018-11-02T23:03:56.474Z,10.20
2018-11-02T23:06:24.892Z,11.47
2018-11-02T23:08:53.664Z,11.87
2018-11-02T23:11:22.289Z,11.60
2018-11-02T23:13:50.336Z,11.80
2018-11-02T23:16:18.531Z,12.33
2018-11-02T23:18:46.578Z,11.53
2018-11-02T23:21:14.691Z,10.67
2018-11-02T23:23:42.708Z,10.83
2018-11-02T23:26:10.809Z,11.90
2018-11-02T23:28:39.456Z,11.60
2018-11-02T23:31:07.523Z,10.37
2018-11-02T23:33:35.824Z,10.57
2018-11-02T23:36:03.941Z,10.07
2018-11-02T23:38:32.042Z,10.90
2018-11-02T23:41:00.128Z,10.70
2018-11-02T23:43:28.181Z,9.73
2018-11-02T23:45:56.284Z,10.70
2018-11-02T23:48:24.341Z,11.63
2018-11-02T23:50:52.428Z,13.20
2018-11-02T23:53:20.552Z,12.07
2018-11-02T23:55:48.682Z,11.63
2018-11-02T23:58:16.823Z,9.90
